Ontario International Airport
KONT : rendu visible

Aérodrome :











RETROUVEZ-NOUS SUR...

 
LOGIN :

S'inscrire | Disclaimer

   EN    FR    IT 

 









Légende :    VFR   VFR Marginal   IFR   IFR Intensif   IFR Très Intensif
Visi : 
Plafond : 
>= 8 km
>= 3000ft
5 à 8 km
1000 à 3000 ft
1500m à 5 km
500 à 1000 ft
800 à 1500m
200 à 500 ft
< 800m
< 200 ft
Symboles :   Orages  Brouillard  Fortes neiges  Fortes précipitations  Vent > 20 kt






- Altitude de l'aérodrome : 944 ft
- Code IATA : ONT


KONT - Ontario International

DERNIER METAR :
  • 260353Z 26007KT 6SM BR FEW250 13/11 A3005 RMK AO2 SLP174 T01280106

METARs EXPIRÉS :
  • 260253Z 25007KT 6SM HZ FEW250 14/11 A3005 RMK AO2 SLP174 T01440106 53010
  • 260153Z 24009KT 8SM FEW250 16/10 A3004 RMK AO2 SLP171 T01560100

TAF KONT
Valide du 26 à 00h jusqu'au 27 à 06h UTC


252320Z 2600/2706 27008KT P6SM FEW250
FM260200 25004KT P6SM SCT020
FM260900 VRB03KT P6SM BKN018
FM261500 VRB04KT P6SM SCT025
FM262000 04015G25KT P6SM SKC
FM270400 05020G32KT P6SM SKC
FIR KZLA / Amérique du Nord



MET'MAP, la Météo Aéronautique d'un coup d'oeil ! - Copyright ORBIFLY Décembre 2007 - Disclaimer

ORBIFLY MET'MAP TEAM :

Programmation & Développement : Alexandra Zaïnal
Sur une idée originale de : Baudouin d'Aumeries
Assistance à la programmation : Marc-Olivier Méhu
Soutien technique & logistique : Manuel Goepfert

Contact : metmap@orbifly.com




SOURCES & CREDITS :

   NOAA       Earth
Advisory